sensor_id;sensor_type;location;lat;lon;timestamp;P1;durP1;ratioP1;P2;durP2;ratioP2
10416;SDS011;62605;49.432;8.680;2022-07-30T00:02:21;4.70;;;3.78;;
10416;SDS011;62605;49.432;8.680;2022-07-30T00:04:48;5.15;;;4.43;;
10416;SDS011;62605;49.432;8.680;2022-07-30T00:07:15;5.72;;;4.05;;
10416;SDS011;62605;49.432;8.680;2022-07-30T00:09:42;5.05;;;4.35;;
10416;SDS011;62605;49.432;8.680;2022-07-30T00:12:11;6.50;;;4.50;;
10416;SDS011;62605;49.432;8.680;2022-07-30T00:14:38;4.20;;;3.80;;
10416;SDS011;62605;49.432;8.680;2022-07-30T00:17:05;7.15;;;4.60;;
10416;SDS011;62605;49.432;8.680;2022-07-30T00:19:32;6.10;;;4.28;;
10416;SDS011;62605;49.432;8.680;2022-07-30T00:21:59;6.15;;;4.50;;
10416;SDS011;62605;49.432;8.680;2022-07-30T00:24:26;5.40;;;4.53;;
10416;SDS011;62605;49.432;8.680;2022-07-30T00:26:54;6.57;;;4.50;;
10416;SDS011;62605;49.432;8.680;2022-07-30T00:29:22;5.10;;;4.63;;
10416;SDS011;62605;49.432;8.680;2022-07-30T00:31:49;6.45;;;5.03;;
10416;SDS011;62605;49.432;8.680;2022-07-30T00:34:16;6.20;;;5.43;;
10416;SDS011;62605;49.432;8.680;2022-07-30T00:36:43;5.82;;;5.25;;
10416;SDS011;62605;49.432;8.680;2022-07-30T00:39:10;7.30;;;5.38;;
10416;SDS011;62605;49.432;8.680;2022-07-30T00:41:51;8.32;;;5.88;;
10416;SDS011;62605;49.432;8.680;2022-07-30T00:44:19;8.60;;;5.53;;
10416;SDS011;62605;49.432;8.680;2022-07-30T00:46:47;5.85;;;5.20;;
10416;SDS011;62605;49.432;8.680;2022-07-30T00:49:14;5.78;;;5.07;;
10416;SDS011;62605;49.432;8.680;2022-07-30T00:51:41;5.97;;;5.38;;
10416;SDS011;62605;49.432;8.680;2022-07-30T00:54:08;6.78;;;5.53;;
10416;SDS011;62605;49.432;8.680;2022-07-30T00:56:35;11.57;;;5.18;;
10416;SDS011;62605;49.432;8.680;2022-07-30T00:59:03;6.00;;;5.03;;
10416;SDS011;62605;49.432;8.680;2022-07-30T01:01:30;5.47;;;4.75;;
10416;SDS011;62605;49.432;8.680;2022-07-30T01:03:59;6.03;;;4.88;;
10416;SDS011;62605;49.432;8.680;2022-07-30T01:06:26;5.43;;;4.40;;
10416;SDS011;62605;49.432;8.680;2022-07-30T01:08:54;5.13;;;4.43;;
10416;SDS011;62605;49.432;8.680;2022-07-30T01:11:21;5.18;;;4.68;;
10416;SDS011;62605;49.432;8.680;2022-07-30T01:13:58;5.15;;;4.47;;
10416;SDS011;62605;49.432;8.680;2022-07-30T01:16:25;10.65;;;4.82;;
10416;SDS011;62605;49.432;8.680;2022-07-30T01:18:53;8.02;;;4.93;;
10416;SDS011;62605;49.432;8.680;2022-07-30T01:21:43;7.68;;;4.93;;
10416;SDS011;62605;49.432;8.680;2022-07-30T01:24:19;6.45;;;4.68;;
10416;SDS011;62605;49.432;8.680;2022-07-30T01:26:52;6.65;;;4.72;;
10416;SDS011;62605;49.432;8.680;2022-07-30T01:29:21;6.68;;;4.75;;
10416;SDS011;62605;49.432;8.680;2022-07-30T01:31:50;5.30;;;4.38;;
10416;SDS011;62605;49.432;8.680;2022-07-30T01:34:20;7.28;;;4.05;;
10416;SDS011;62605;49.432;8.680;2022-07-30T01:36:48;5.30;;;3.80;;
10416;SDS011;62605;49.432;8.680;2022-07-30T01:39:16;7.47;;;4.40;;
10416;SDS011;62605;49.432;8.680;2022-07-30T01:41:44;6.30;;;4.47;;
10416;SDS011;62605;49.432;8.680;2022-07-30T01:44:15;4.65;;;4.22;;
10416;SDS011;62605;49.432;8.680;2022-07-30T01:46:44;4.40;;;4.00;;
10416;SDS011;62605;49.432;8.680;2022-07-30T01:49:12;4.95;;;3.78;;
10416;SDS011;62605;49.432;8.680;2022-07-30T01:51:41;4.55;;;4.00;;
10416;SDS011;62605;49.432;8.680;2022-07-30T01:54:09;5.93;;;3.88;;
10416;SDS011;62605;49.432;8.680;2022-07-30T01:56:39;5.18;;;4.13;;
10416;SDS011;62605;49.432;8.680;2022-07-30T01:59:07;6.28;;;4.30;;
10416;SDS011;62605;49.432;8.680;2022-07-30T02:01:37;5.63;;;3.80;;
10416;SDS011;62605;49.432;8.680;2022-07-30T02:04:04;6.55;;;4.20;;
10416;SDS011;62605;49.432;8.680;2022-07-30T02:06:33;5.97;;;3.97;;
10416;SDS011;62605;49.432;8.680;2022-07-30T02:09:05;6.38;;;3.88;;
10416;SDS011;62605;49.432;8.680;2022-07-30T02:11:35;4.07;;;3.67;;
10416;SDS011;62605;49.432;8.680;2022-07-30T02:14:36;4.07;;;3.55;;
10416;SDS011;62605;49.432;8.680;2022-07-30T02:17:08;6.05;;;3.22;;
10416;SDS011;62605;49.432;8.680;2022-07-30T02:19:39;4.25;;;3.85;;
10416;SDS011;62605;49.432;8.680;2022-07-30T02:22:12;5.75;;;3.63;;
10416;SDS011;62605;49.432;8.680;2022-07-30T02:24:41;5.88;;;3.58;;
10416;SDS011;62605;49.432;8.680;2022-07-30T02:27:10;5.22;;;4.03;;
10416;SDS011;62605;49.432;8.680;2022-07-30T02:29:40;4.32;;;3.63;;
10416;SDS011;62605;49.432;8.680;2022-07-30T02:32:11;4.38;;;3.50;;
10416;SDS011;62605;49.432;8.680;2022-07-30T02:34:42;4.80;;;3.63;;
10416;SDS011;62605;49.432;8.680;2022-07-30T02:37:13;4.97;;;3.78;;
10416;SDS011;62605;49.432;8.680;2022-07-30T02:39:42;4.68;;;3.65;;
10416;SDS011;62605;49.432;8.680;2022-07-30T02:42:10;4.80;;;3.55;;
10416;SDS011;62605;49.432;8.680;2022-07-30T02:44:39;4.05;;;3.70;;
10416;SDS011;62605;49.432;8.680;2022-07-30T02:47:09;3.80;;;3.35;;
10416;SDS011;62605;49.432;8.680;2022-07-30T02:49:40;4.35;;;3.20;;
10416;SDS011;62605;49.432;8.680;2022-07-30T02:52:10;6.05;;;3.92;;
10416;SDS011;62605;49.432;8.680;2022-07-30T02:54:39;5.93;;;3.30;;
10416;SDS011;62605;49.432;8.680;2022-07-30T02:57:08;4.88;;;3.72;;
10416;SDS011;62605;49.432;8.680;2022-07-30T02:59:36;4.15;;;3.75;;
10416;SDS011;62605;49.432;8.680;2022-07-30T03:02:06;6.20;;;3.65;;
10416;SDS011;62605;49.432;8.680;2022-07-30T03:04:36;3.63;;;3.22;;
10416;SDS011;62605;49.432;8.680;2022-07-30T03:07:05;4.72;;;3.28;;
10416;SDS011;62605;49.432;8.680;2022-07-30T03:09:33;3.78;;;3.35;;
10416;SDS011;62605;49.432;8.680;2022-07-30T03:12:02;4.07;;;3.45;;
10416;SDS011;62605;49.432;8.680;2022-07-30T03:14:29;5.65;;;3.42;;
10416;SDS011;62605;49.432;8.680;2022-07-30T03:16:57;4.43;;;3.58;;
10416;SDS011;62605;49.432;8.680;2022-07-30T03:19:26;7.70;;;4.10;;
10416;SDS011;62605;49.432;8.680;2022-07-30T03:21:57;3.85;;;3.22;;
10416;SDS011;62605;49.432;8.680;2022-07-30T03:24:27;5.55;;;3.42;;
10416;SDS011;62605;49.432;8.680;2022-07-30T03:26:55;3.65;;;3.30;;
10416;SDS011;62605;49.432;8.680;2022-07-30T03:29:24;4.05;;;3.38;;
10416;SDS011;62605;49.432;8.680;2022-07-30T03:31:52;3.67;;;3.25;;
10416;SDS011;62605;49.432;8.680;2022-07-30T03:34:19;3.88;;;3.05;;
10416;SDS011;62605;49.432;8.680;2022-07-30T03:36:47;4.30;;;3.33;;
10416;SDS011;62605;49.432;8.680;2022-07-30T03:39:17;3.53;;;3.17;;
10416;SDS011;62605;49.432;8.680;2022-07-30T03:41:45;5.43;;;3.45;;
10416;SDS011;62605;49.432;8.680;2022-07-30T03:44:13;3.75;;;3.22;;
10416;SDS011;62605;49.432;8.680;2022-07-30T03:46:41;3.97;;;3.10;;
10416;SDS011;62605;49.432;8.680;2022-07-30T03:49:09;3.95;;;3.22;;
10416;SDS011;62605;49.432;8.680;2022-07-30T03:51:37;3.60;;;3.15;;
10416;SDS011;62605;49.432;8.680;2022-07-30T03:54:05;3.60;;;2.92;;
10416;SDS011;62605;49.432;8.680;2022-07-30T03:56:36;7.80;;;3.10;;
10416;SDS011;62605;49.432;8.680;2022-07-30T03:59:03;5.75;;;3.00;;
10416;SDS011;62605;49.432;8.680;2022-07-30T04:01:31;3.00;;;2.70;;
10416;SDS011;62605;49.432;8.680;2022-07-30T04:04:03;5.72;;;3.38;;
10416;SDS011;62605;49.432;8.680;2022-07-30T04:06:30;3.42;;;2.97;;
10416;SDS011;62605;49.432;8.680;2022-07-30T04:09:00;6.28;;;3.03;;
10416;SDS011;62605;49.432;8.680;2022-07-30T04:11:27;4.20;;;2.92;;
10416;SDS011;62605;49.432;8.680;2022-07-30T04:13:56;4.40;;;3.00;;
10416;SDS011;62605;49.432;8.680;2022-07-30T04:16:24;4.90;;;3.25;;
10416;SDS011;62605;49.432;8.680;2022-07-30T04:19:02;5.10;;;3.22;;
10416;SDS011;62605;49.432;8.680;2022-07-30T04:21:33;4.00;;;2.95;;
10416;SDS011;62605;49.432;8.680;2022-07-30T04:24:03;3.75;;;3.10;;
10416;SDS011;62605;49.432;8.680;2022-07-30T04:26:32;3.72;;;3.20;;
10416;SDS011;62605;49.432;8.680;2022-07-30T04:29:03;3.13;;;2.78;;
10416;SDS011;62605;49.432;8.680;2022-07-30T04:31:31;3.78;;;3.15;;
10416;SDS011;62605;49.432;8.680;2022-07-30T04:34:00;3.42;;;2.90;;
10416;SDS011;62605;49.432;8.680;2022-07-30T04:36:28;5.05;;;3.15;;
10416;SDS011;62605;49.432;8.680;2022-07-30T04:38:56;3.45;;;2.70;;
10416;SDS011;62605;49.432;8.680;2022-07-30T04:41:23;5.03;;;2.72;;
10416;SDS011;62605;49.432;8.680;2022-07-30T04:43:51;5.60;;;2.65;;
10416;SDS011;62605;49.432;8.680;2022-07-30T04:46:19;3.28;;;2.80;;
10416;SDS011;62605;49.432;8.680;2022-07-30T04:48:47;3.05;;;2.63;;
10416;SDS011;62605;49.432;8.680;2022-07-30T04:51:15;3.13;;;2.60;;
10416;SDS011;62605;49.432;8.680;2022-07-30T04:53:47;3.40;;;3.05;;
10416;SDS011;62605;49.432;8.680;2022-07-30T04:56:16;3.75;;;2.25;;
10416;SDS011;62605;49.432;8.680;2022-07-30T04:58:45;4.57;;;2.75;;
10416;SDS011;62605;49.432;8.680;2022-07-30T05:01:15;3.50;;;2.80;;
10416;SDS011;62605;49.432;8.680;2022-07-30T05:03:48;4.57;;;2.70;;
10416;SDS011;62605;49.432;8.680;2022-07-30T05:06:16;4.60;;;3.28;;
10416;SDS011;62605;49.432;8.680;2022-07-30T05:08:44;3.13;;;2.88;;
10416;SDS011;62605;49.432;8.680;2022-07-30T05:11:11;4.38;;;3.17;;
10416;SDS011;62605;49.432;8.680;2022-07-30T05:13:39;4.13;;;2.88;;
10416;SDS011;62605;49.432;8.680;2022-07-30T05:16:07;3.00;;;2.70;;
10416;SDS011;62605;49.432;8.680;2022-07-30T05:18:35;3.38;;;3.08;;
10416;SDS011;62605;49.432;8.680;2022-07-30T05:21:04;3.63;;;3.08;;
10416;SDS011;62605;49.432;8.680;2022-07-30T05:23:32;5.93;;;3.17;;
10416;SDS011;62605;49.432;8.680;2022-07-30T05:26:00;3.50;;;3.00;;
10416;SDS011;62605;49.432;8.680;2022-07-30T05:28:27;2.80;;;2.47;;
10416;SDS011;62605;49.432;8.680;2022-07-30T05:30:55;2.85;;;2.65;;
10416;SDS011;62605;49.432;8.680;2022-07-30T05:33:22;5.70;;;3.17;;
10416;SDS011;62605;49.432;8.680;2022-07-30T05:35:49;5.30;;;2.90;;
10416;SDS011;62605;49.432;8.680;2022-07-30T05:38:18;4.72;;;2.92;;
10416;SDS011;62605;49.432;8.680;2022-07-30T05:40:45;3.97;;;2.70;;
10416;SDS011;62605;49.432;8.680;2022-07-30T05:43:12;3.13;;;2.83;;
10416;SDS011;62605;49.432;8.680;2022-07-30T05:45:39;3.08;;;2.88;;
10416;SDS011;62605;49.432;8.680;2022-07-30T05:48:07;3.85;;;3.00;;
10416;SDS011;62605;49.432;8.680;2022-07-30T05:50:34;5.35;;;3.33;;
10416;SDS011;62605;49.432;8.680;2022-07-30T05:53:01;5.72;;;3.55;;
10416;SDS011;62605;49.432;8.680;2022-07-30T05:55:29;5.50;;;3.25;;
10416;SDS011;62605;49.432;8.680;2022-07-30T05:57:57;3.65;;;3.03;;
10416;SDS011;62605;49.432;8.680;2022-07-30T06:00:24;4.35;;;3.00;;
10416;SDS011;62605;49.432;8.680;2022-07-30T06:02:51;6.30;;;3.45;;
10416;SDS011;62605;49.432;8.680;2022-07-30T06:05:18;3.88;;;3.30;;
10416;SDS011;62605;49.432;8.680;2022-07-30T06:07:45;4.22;;;3.20;;
10416;SDS011;62605;49.432;8.680;2022-07-30T06:10:12;5.70;;;3.10;;
10416;SDS011;62605;49.432;8.680;2022-07-30T06:12:40;7.22;;;3.30;;
10416;SDS011;62605;49.432;8.680;2022-07-30T06:15:08;4.13;;;3.00;;
10416;SDS011;62605;49.432;8.680;2022-07-30T06:17:39;3.50;;;3.20;;
10416;SDS011;62605;49.432;8.680;2022-07-30T06:20:08;4.43;;;3.00;;
10416;SDS011;62605;49.432;8.680;2022-07-30T06:22:36;3.65;;;3.08;;
10416;SDS011;62605;49.432;8.680;2022-07-30T06:25:03;4.57;;;3.60;;
10416;SDS011;62605;49.432;8.680;2022-07-30T06:27:31;4.07;;;3.42;;
10416;SDS011;62605;49.432;8.680;2022-07-30T06:30:00;4.63;;;3.38;;
10416;SDS011;62605;49.432;8.680;2022-07-30T06:32:27;5.20;;;3.70;;
10416;SDS011;62605;49.432;8.680;2022-07-30T06:34:54;7.28;;;3.72;;
10416;SDS011;62605;49.432;8.680;2022-07-30T06:37:21;5.00;;;3.83;;
10416;SDS011;62605;49.432;8.680;2022-07-30T06:39:48;5.40;;;3.92;;
10416;SDS011;62605;49.432;8.680;2022-07-30T06:42:16;5.00;;;3.83;;
10416;SDS011;62605;49.432;8.680;2022-07-30T06:44:43;4.30;;;3.72;;
10416;SDS011;62605;49.432;8.680;2022-07-30T06:47:11;3.97;;;3.20;;
10416;SDS011;62605;49.432;8.680;2022-07-30T06:49:39;5.95;;;4.22;;
10416;SDS011;62605;49.432;8.680;2022-07-30T06:52:06;7.53;;;4.38;;
10416;SDS011;62605;49.432;8.680;2022-07-30T06:54:33;4.90;;;3.80;;
10416;SDS011;62605;49.432;8.680;2022-07-30T06:57:00;9.07;;;4.60;;
10416;SDS011;62605;49.432;8.680;2022-07-30T06:59:27;6.65;;;4.75;;
10416;SDS011;62605;49.432;8.680;2022-07-30T07:01:54;4.57;;;3.97;;
10416;SDS011;62605;49.432;8.680;2022-07-30T07:04:23;5.28;;;4.10;;
10416;SDS011;62605;49.432;8.680;2022-07-30T07:06:50;6.80;;;4.22;;
10416;SDS011;62605;49.432;8.680;2022-07-30T07:09:17;7.07;;;4.45;;
10416;SDS011;62605;49.432;8.680;2022-07-30T07:11:44;9.32;;;4.38;;
10416;SDS011;62605;49.432;8.680;2022-07-30T07:14:11;6.05;;;4.45;;
10416;SDS011;62605;49.432;8.680;2022-07-30T07:16:38;5.93;;;4.18;;
10416;SDS011;62605;49.432;8.680;2022-07-30T07:19:05;6.47;;;4.68;;
10416;SDS011;62605;49.432;8.680;2022-07-30T07:21:34;9.43;;;4.55;;
10416;SDS011;62605;49.432;8.680;2022-07-30T07:24:01;6.72;;;4.57;;
10416;SDS011;62605;49.432;8.680;2022-07-30T07:26:28;4.90;;;4.22;;
10416;SDS011;62605;49.432;8.680;2022-07-30T07:28:57;7.25;;;4.43;;
10416;SDS011;62605;49.432;8.680;2022-07-30T07:31:24;5.30;;;3.92;;
10416;SDS011;62605;49.432;8.680;2022-07-30T07:33:51;5.68;;;4.20;;
10416;SDS011;62605;49.432;8.680;2022-07-30T07:36:19;7.25;;;4.28;;
10416;SDS011;62605;49.432;8.680;2022-07-30T07:38:48;6.88;;;3.95;;
10416;SDS011;62605;49.432;8.680;2022-07-30T07:41:15;6.00;;;4.15;;
10416;SDS011;62605;49.432;8.680;2022-07-30T07:43:42;4.75;;;4.25;;
10416;SDS011;62605;49.432;8.680;2022-07-30T07:46:09;8.23;;;4.43;;
10416;SDS011;62605;49.432;8.680;2022-07-30T07:48:40;5.32;;;4.70;;
10416;SDS011;62605;49.432;8.680;2022-07-30T07:51:07;5.82;;;4.18;;
10416;SDS011;62605;49.432;8.680;2022-07-30T07:53:34;7.55;;;4.32;;
10416;SDS011;62605;49.432;8.680;2022-07-30T07:56:03;7.55;;;4.25;;
10416;SDS011;62605;49.432;8.680;2022-07-30T07:58:32;5.95;;;4.50;;
10416;SDS011;62605;49.432;8.680;2022-07-30T08:01:00;6.07;;;4.68;;
10416;SDS011;62605;49.432;8.680;2022-07-30T08:03:27;9.25;;;5.65;;
10416;SDS011;62605;49.432;8.680;2022-07-30T08:05:54;9.35;;;4.47;;
10416;SDS011;62605;49.432;8.680;2022-07-30T08:08:21;6.75;;;4.57;;
10416;SDS011;62605;49.432;8.680;2022-07-30T08:10:49;6.15;;;4.80;;
10416;SDS011;62605;49.432;8.680;2022-07-30T08:13:17;6.80;;;4.80;;
10416;SDS011;62605;49.432;8.680;2022-07-30T08:15:45;7.93;;;4.45;;
10416;SDS011;62605;49.432;8.680;2022-07-30T08:18:12;6.75;;;4.90;;
10416;SDS011;62605;49.432;8.680;2022-07-30T08:20:39;6.68;;;5.03;;
10416;SDS011;62605;49.432;8.680;2022-07-30T08:23:06;5.93;;;4.75;;
10416;SDS011;62605;49.432;8.680;2022-07-30T08:25:33;6.95;;;5.07;;
10416;SDS011;62605;49.432;8.680;2022-07-30T08:28:00;7.00;;;5.63;;
10416;SDS011;62605;49.432;8.680;2022-07-30T08:30:29;8.70;;;6.03;;
10416;SDS011;62605;49.432;8.680;2022-07-30T08:32:56;8.45;;;5.60;;
10416;SDS011;62605;49.432;8.680;2022-07-30T08:35:23;9.68;;;6.55;;
10416;SDS011;62605;49.432;8.680;2022-07-30T08:37:51;9.18;;;5.88;;
10416;SDS011;62605;49.432;8.680;2022-07-30T08:40:18;8.20;;;6.57;;
10416;SDS011;62605;49.432;8.680;2022-07-30T08:42:45;6.72;;;5.65;;
10416;SDS011;62605;49.432;8.680;2022-07-30T08:45:13;8.85;;;5.50;;
10416;SDS011;62605;49.432;8.680;2022-07-30T08:47:45;7.55;;;6.65;;
10416;SDS011;62605;49.432;8.680;2022-07-30T08:50:13;9.75;;;6.65;;
10416;SDS011;62605;49.432;8.680;2022-07-30T08:52:40;10.18;;;5.78;;
10416;SDS011;62605;49.432;8.680;2022-07-30T08:55:08;6.80;;;6.05;;
10416;SDS011;62605;49.432;8.680;2022-07-30T08:57:35;10.75;;;5.22;;
10416;SDS011;62605;49.432;8.680;2022-07-30T09:00:03;9.07;;;5.50;;
10416;SDS011;62605;49.432;8.680;2022-07-30T09:02:32;9.43;;;5.18;;
10416;SDS011;62605;49.432;8.680;2022-07-30T09:05:02;9.23;;;5.32;;
10416;SDS011;62605;49.432;8.680;2022-07-30T09:07:30;9.20;;;6.28;;
10416;SDS011;62605;49.432;8.680;2022-07-30T09:09:58;8.18;;;5.40;;
10416;SDS011;62605;49.432;8.680;2022-07-30T09:12:32;8.75;;;5.72;;
10416;SDS011;62605;49.432;8.680;2022-07-30T09:15:02;7.90;;;5.55;;
10416;SDS011;62605;49.432;8.680;2022-07-30T09:17:43;7.45;;;5.55;;
10416;SDS011;62605;49.432;8.680;2022-07-30T09:20:21;6.72;;;5.13;;
10416;SDS011;62605;49.432;8.680;2022-07-30T09:22:50;9.70;;;5.70;;
10416;SDS011;62605;49.432;8.680;2022-07-30T09:25:35;5.95;;;5.28;;
10416;SDS011;62605;49.432;8.680;2022-07-30T09:28:03;9.10;;;5.57;;
10416;SDS011;62605;49.432;8.680;2022-07-30T09:30:42;7.03;;;4.80;;
10416;SDS011;62605;49.432;8.680;2022-07-30T09:33:13;9.68;;;5.53;;
10416;SDS011;62605;49.432;8.680;2022-07-30T09:35:42;7.18;;;5.03;;
10416;SDS011;62605;49.432;8.680;2022-07-30T09:38:10;7.15;;;5.40;;
10416;SDS011;62605;49.432;8.680;2022-07-30T09:40:38;10.48;;;5.07;;
10416;SDS011;62605;49.432;8.680;2022-07-30T09:43:06;5.43;;;4.68;;
10416;SDS011;62605;49.432;8.680;2022-07-30T09:45:35;8.20;;;4.65;;
10416;SDS011;62605;49.432;8.680;2022-07-30T09:48:19;6.38;;;4.45;;
10416;SDS011;62605;49.432;8.680;2022-07-30T09:50:48;6.90;;;4.90;;
10416;SDS011;62605;49.432;8.680;2022-07-30T09:53:18;6.00;;;3.40;;
10416;SDS011;62605;49.432;8.680;2022-07-30T09:55:46;6.15;;;3.95;;
10416;SDS011;62605;49.432;8.680;2022-07-30T09:58:14;4.50;;;2.97;;
10416;SDS011;62605;49.432;8.680;2022-07-30T10:00:41;4.40;;;2.97;;
10416;SDS011;62605;49.432;8.680;2022-07-30T10:03:16;4.45;;;3.03;;
10416;SDS011;62605;49.432;8.680;2022-07-30T10:05:52;5.32;;;3.00;;
10416;SDS011;62605;49.432;8.680;2022-07-30T10:08:21;3.40;;;2.63;;
10416;SDS011;62605;49.432;8.680;2022-07-30T10:11:05;3.63;;;3.05;;
10416;SDS011;62605;49.432;8.680;2022-07-30T10:13:36;4.28;;;2.80;;
10416;SDS011;62605;49.432;8.680;2022-07-30T10:16:04;4.20;;;2.70;;
10416;SDS011;62605;49.432;8.680;2022-07-30T10:18:33;4.28;;;2.53;;
10416;SDS011;62605;49.432;8.680;2022-07-30T10:21:02;3.10;;;2.88;;
10416;SDS011;62605;49.432;8.680;2022-07-30T10:23:31;3.78;;;2.90;;
10416;SDS011;62605;49.432;8.680;2022-07-30T10:25:58;5.28;;;2.70;;
10416;SDS011;62605;49.432;8.680;2022-07-30T10:28:27;2.67;;;2.47;;
10416;SDS011;62605;49.432;8.680;2022-07-30T10:30:56;2.78;;;2.58;;
10416;SDS011;62605;49.432;8.680;2022-07-30T10:33:25;6.47;;;2.90;;
10416;SDS011;62605;49.432;8.680;2022-07-30T10:35:53;3.17;;;2.58;;
10416;SDS011;62605;49.432;8.680;2022-07-30T10:38:22;2.60;;;2.40;;
10416;SDS011;62605;49.432;8.680;2022-07-30T10:40:53;2.63;;;1.98;;
10416;SDS011;62605;49.432;8.680;2022-07-30T10:46:41;4.05;;;2.38;;
10416;SDS011;62605;49.432;8.680;2022-07-30T10:49:16;3.28;;;2.47;;
10416;SDS011;62605;49.432;8.680;2022-07-30T10:51:44;2.80;;;2.60;;
10416;SDS011;62605;49.432;8.680;2022-07-30T10:57:03;1.98;;;1.88;;
10416;SDS011;62605;49.432;8.680;2022-07-30T11:02:32;3.17;;;2.17;;
10416;SDS011;62605;49.432;8.680;2022-07-30T11:07:52;4.85;;;2.40;;
10416;SDS011;62605;49.432;8.680;2022-07-30T11:10:34;3.78;;;2.42;;
10416;SDS011;62605;49.432;8.680;2022-07-30T11:13:04;2.08;;;1.90;;
10416;SDS011;62605;49.432;8.680;2022-07-30T11:18:18;3.72;;;2.22;;
10416;SDS011;62605;49.432;8.680;2022-07-30T11:23:41;4.97;;;2.28;;
10416;SDS011;62605;49.432;8.680;2022-07-30T11:26:12;5.65;;;2.08;;
10416;SDS011;62605;49.432;8.680;2022-07-30T11:35:12;5.03;;;2.47;;
10416;SDS011;62605;49.432;8.680;2022-07-30T11:37:54;1.90;;;1.80;;
10416;SDS011;62605;49.432;8.680;2022-07-30T11:40:25;2.40;;;1.95;;
10416;SDS011;62605;49.432;8.680;2022-07-30T11:43:15;2.78;;;2.10;;
10416;SDS011;62605;49.432;8.680;2022-07-30T11:45:44;2.40;;;2.20;;
10416;SDS011;62605;49.432;8.680;2022-07-30T11:48:14;4.20;;;1.95;;
10416;SDS011;62605;49.432;8.680;2022-07-30T11:50:46;4.13;;;2.10;;
10416;SDS011;62605;49.432;8.680;2022-07-30T11:53:18;3.17;;;2.00;;
10416;SDS011;62605;49.432;8.680;2022-07-30T11:55:49;2.35;;;1.90;;
10416;SDS011;62605;49.432;8.680;2022-07-30T11:58:24;2.15;;;1.92;;
10416;SDS011;62605;49.432;8.680;2022-07-30T12:00:53;2.55;;;2.33;;
10416;SDS011;62605;49.432;8.680;2022-07-30T12:03:26;3.13;;;2.08;;
10416;SDS011;62605;49.432;8.680;2022-07-30T12:06:01;2.10;;;1.88;;
10416;SDS011;62605;49.432;8.680;2022-07-30T12:08:37;2.58;;;2.05;;
10416;SDS011;62605;49.432;8.680;2022-07-30T12:11:10;1.95;;;1.85;;
10416;SDS011;62605;49.432;8.680;2022-07-30T12:13:40;2.45;;;2.20;;
10416;SDS011;62605;49.432;8.680;2022-07-30T12:16:09;4.43;;;1.95;;
10416;SDS011;62605;49.432;8.680;2022-07-30T12:18:37;2.03;;;1.70;;
10416;SDS011;62605;49.432;8.680;2022-07-30T12:21:05;1.98;;;1.77;;
10416;SDS011;62605;49.432;8.680;2022-07-30T12:23:36;3.10;;;2.17;;
10416;SDS011;62605;49.432;8.680;2022-07-30T12:26:03;1.98;;;1.63;;
10416;SDS011;62605;49.432;8.680;2022-07-30T12:28:31;5.75;;;1.83;;
10416;SDS011;62605;49.432;8.680;2022-07-30T12:31:02;2.72;;;1.70;;
10416;SDS011;62605;49.432;8.680;2022-07-30T12:33:30;3.42;;;1.80;;
10416;SDS011;62605;49.432;8.680;2022-07-30T12:35:58;2.00;;;1.75;;
10416;SDS011;62605;49.432;8.680;2022-07-30T12:38:26;2.00;;;1.90;;
10416;SDS011;62605;49.432;8.680;2022-07-30T12:40:55;1.65;;;1.52;;
10416;SDS011;62605;49.432;8.680;2022-07-30T12:43:45;1.88;;;1.77;;
10416;SDS011;62605;49.432;8.680;2022-07-30T12:46:18;2.05;;;1.90;;
10416;SDS011;62605;49.432;8.680;2022-07-30T12:48:51;1.75;;;1.58;;
10416;SDS011;62605;49.432;8.680;2022-07-30T12:51:20;2.40;;;1.92;;
10416;SDS011;62605;49.432;8.680;2022-07-30T12:53:49;1.75;;;1.55;;
10416;SDS011;62605;49.432;8.680;2022-07-30T12:56:18;1.95;;;1.67;;
10416;SDS011;62605;49.432;8.680;2022-07-30T12:58:47;1.90;;;1.73;;
10416;SDS011;62605;49.432;8.680;2022-07-30T13:01:14;2.78;;;1.73;;
10416;SDS011;62605;49.432;8.680;2022-07-30T13:03:44;1.50;;;1.40;;
10416;SDS011;62605;49.432;8.680;2022-07-30T13:06:12;1.77;;;1.67;;
10416;SDS011;62605;49.432;8.680;2022-07-30T13:08:43;1.98;;;1.40;;
10416;SDS011;62605;49.432;8.680;2022-07-30T13:11:12;1.70;;;1.60;;
10416;SDS011;62605;49.432;8.680;2022-07-30T13:13:39;1.90;;;1.67;;
10416;SDS011;62605;49.432;8.680;2022-07-30T13:16:07;2.15;;;1.77;;
10416;SDS011;62605;49.432;8.680;2022-07-30T13:18:35;1.35;;;1.30;;
10416;SDS011;62605;49.432;8.680;2022-07-30T13:21:04;2.38;;;1.80;;
10416;SDS011;62605;49.432;8.680;2022-07-30T13:23:33;1.52;;;1.42;;
10416;SDS011;62605;49.432;8.680;2022-07-30T13:26:00;1.60;;;1.50;;
10416;SDS011;62605;49.432;8.680;2022-07-30T13:28:28;3.92;;;1.80;;
10416;SDS011;62605;49.432;8.680;2022-07-30T13:30:56;2.45;;;1.60;;
10416;SDS011;62605;49.432;8.680;2022-07-30T13:33:23;2.90;;;1.52;;
10416;SDS011;62605;49.432;8.680;2022-07-30T13:35:52;1.70;;;1.60;;
10416;SDS011;62605;49.432;8.680;2022-07-30T13:38:19;2.38;;;1.80;;
10416;SDS011;62605;49.432;8.680;2022-07-30T13:40:46;4.55;;;1.80;;
10416;SDS011;62605;49.432;8.680;2022-07-30T13:43:14;3.13;;;1.88;;
10416;SDS011;62605;49.432;8.680;2022-07-30T13:45:41;2.40;;;1.70;;
10416;SDS011;62605;49.432;8.680;2022-07-30T13:48:08;3.03;;;1.77;;
10416;SDS011;62605;49.432;8.680;2022-07-30T13:50:38;1.60;;;1.50;;
10416;SDS011;62605;49.432;8.680;2022-07-30T13:53:07;3.30;;;1.70;;
10416;SDS011;62605;49.432;8.680;2022-07-30T13:55:34;2.55;;;1.65;;
10416;SDS011;62605;49.432;8.680;2022-07-30T13:58:02;2.10;;;1.90;;
10416;SDS011;62605;49.432;8.680;2022-07-30T14:00:30;2.13;;;1.63;;
10416;SDS011;62605;49.432;8.680;2022-07-30T14:03:00;1.65;;;1.55;;
10416;SDS011;62605;49.432;8.680;2022-07-30T14:05:28;1.83;;;1.70;;
10416;SDS011;62605;49.432;8.680;2022-07-30T14:07:56;1.45;;;1.35;;
10416;SDS011;62605;49.432;8.680;2022-07-30T14:10:25;1.83;;;1.40;;
10416;SDS011;62605;49.432;8.680;2022-07-30T14:12:53;2.33;;;1.60;;
10416;SDS011;62605;49.432;8.680;2022-07-30T14:15:21;1.40;;;1.30;;
10416;SDS011;62605;49.432;8.680;2022-07-30T14:17:48;1.80;;;1.45;;
10416;SDS011;62605;49.432;8.680;2022-07-30T14:20:17;4.80;;;1.60;;
10416;SDS011;62605;49.432;8.680;2022-07-30T14:22:44;1.35;;;1.30;;
10416;SDS011;62605;49.432;8.680;2022-07-30T14:25:11;2.90;;;1.80;;
10416;SDS011;62605;49.432;8.680;2022-07-30T14:27:40;1.70;;;1.60;;
10416;SDS011;62605;49.432;8.680;2022-07-30T14:30:07;2.55;;;1.50;;
10416;SDS011;62605;49.432;8.680;2022-07-30T14:32:35;3.20;;;1.60;;
10416;SDS011;62605;49.432;8.680;2022-07-30T14:35:03;5.15;;;1.70;;
10416;SDS011;62605;49.432;8.680;2022-07-30T14:37:33;3.78;;;1.58;;
10416;SDS011;62605;49.432;8.680;2022-07-30T14:40:00;2.83;;;1.58;;
10416;SDS011;62605;49.432;8.680;2022-07-30T14:42:27;1.58;;;1.48;;
10416;SDS011;62605;49.432;8.680;2022-07-30T14:44:56;3.90;;;1.90;;
10416;SDS011;62605;49.432;8.680;2022-07-30T14:47:23;1.88;;;1.50;;
10416;SDS011;62605;49.432;8.680;2022-07-30T14:49:50;2.92;;;1.58;;
10416;SDS011;62605;49.432;8.680;2022-07-30T14:52:18;1.67;;;1.52;;
10416;SDS011;62605;49.432;8.680;2022-07-30T14:54:45;2.42;;;1.80;;
10416;SDS011;62605;49.432;8.680;2022-07-30T14:57:12;6.47;;;1.50;;
10416;SDS011;62605;49.432;8.680;2022-07-30T14:59:39;1.63;;;1.30;;
10416;SDS011;62605;49.432;8.680;2022-07-30T15:02:09;2.40;;;1.38;;
10416;SDS011;62605;49.432;8.680;2022-07-30T15:04:36;1.35;;;1.25;;
10416;SDS011;62605;49.432;8.680;2022-07-30T15:07:03;2.05;;;1.50;;
10416;SDS011;62605;49.432;8.680;2022-07-30T15:09:31;2.45;;;1.40;;
10416;SDS011;62605;49.432;8.680;2022-07-30T15:12:05;2.95;;;1.48;;
10416;SDS011;62605;49.432;8.680;2022-07-30T15:14:34;1.10;;;1.02;;
10416;SDS011;62605;49.432;8.680;2022-07-30T15:17:02;1.80;;;1.02;;
10416;SDS011;62605;49.432;8.680;2022-07-30T15:19:31;2.60;;;1.25;;
10416;SDS011;62605;49.432;8.680;2022-07-30T15:21:59;1.13;;;1.10;;
10416;SDS011;62605;49.432;8.680;2022-07-30T15:24:26;1.60;;;1.10;;